Terminal Aerodrome Forecast
Issued by NWS Sterling, VA

Home | Current Version | Previous Version | Text Only | Print | Product List | Glossary On
Versions: 1 2 3 4 5 6 7 8 9 10 11 12 13 14 15 16 17 18 19 20 21 22 23 24 25 26 27
000
FTUS41 KLWX 211725
TAFBWI
TAF
KBWI 211725Z 2118/2224 VRB03KT P6SM SCT029
     FM212000 18007KT P6SM VCTS BKN040CB
     FM220300 19004KT P6SM BKN050
     FM220800 VRB03KT P6SM SCT090
     FM221600 22008KT P6SM SCT090
     FM221800 21010G17KT P6SM SCT090
     FM222000 21010G18KT P6SM BKN090=

USA.gov is the U.S. government's official web portal to all federal, state and local government web resources and services.